Latest Weather Observations for Milingimbi

IDD60801

Issued at 11:31 am CST Saturday 28 May 2016 (issued every 30 minutes, with the page automatically refreshed every 10 minutes)

About weather observations | Map of weather stations | Latest weather observations for NT | Other Formats
Station Details ID: 014404 Name: MILINGIMBI AIRPORT Lat: -12.09 Lon: 134.89 Height: 15.0 m
Data from the previous 72 hours. | See also: Recent months at Milingimbi
Date/Time
CST
Temp
°C
App
Temp
°C
Dew
Point
Rel
Hum
%
Delta-T
°C
Wind Press
QNH
hPa
Press
MSL
hPa
Rain
since 9 am
mm
Dir
 
Spd
km/h
Gust
km/h
Spd
kts
Gust
kts
28/11:30am 32.8 36.1 22.6 55 7.0 E 9 13 5 7 1013.1 - 0.0
28/11:00am 31.5 35.0 22.2 57 6.3 N 7 11 4 6 1013.6 - 0.0
28/10:30am 31.5 35.4 22.5 59 6.1 SSE 6 9 3 5 1013.9 - 0.0
28/10:00am 30.5 33.9 21.6 59 6.0 SE 6 9 3 5 1014.2 - 0.0
28/09:30am 30.0 34.1 23.2 67 4.7 WSW 7 11 4 6 1014.3 - 0.0
28/09:00am 28.9 32.6 23.3 72 3.8 WSW 9 13 5 7 1014.5 1014.4 0.0
28/08:30am 28.0 32.3 23.6 77 3.0 WSW 7 11 4 6 1014.6 - 0.0
28/08:00am 26.5 30.4 23.0 81 2.4 WSW 7 9 4 5 1014.4 - 0.0
28/07:30am 24.9 28.8 22.6 87 1.5 SW 6 7 3 4 1014.1 - 0.0
28/07:00am 24.1 28.7 22.4 90 1.1 WSW 2 6 1 3 1013.6 - 0.0
28/06:30am 24.2 28.1 22.5 90 1.1 SSW 6 7 3 4 1013.4 - 0.0
28/06:00am 24.3 29.2 22.4 89 1.3 CALM 0 4 0 2 1012.9 1012.8 0.0
28/05:30am 24.5 28.3 22.7 90 1.2 SW 7 11 4 6 1012.9 - 0.0
28/05:00am 24.6 28.4 22.8 90 1.2 SW 7 11 4 6 1012.7 - 0.0
28/04:30am 24.7 29.1 22.8 89 1.3 SW 4 7 2 4 1012.4 - 0.0
28/04:00am 24.8 29.7 23.0 90 1.2 SW 2 9 1 5 1012.2 - 0.0
28/03:30am 24.9 30.2 23.0 89 1.3 CALM 0 0 0 0 1012.0 - 0.0
28/03:00am 25.1 30.5 23.2 89 1.3 CALM 0 0 0 0 1012.2 1012.1 0.0
28/02:30am 25.2 29.5 23.3 89 1.3 SW 6 9 3 5 1012.2 - 0.0
28/02:00am 25.3 30.0 23.4 89 1.3 WSW 4 6 2 3 1012.3 - 0.0
28/01:30am 25.3 30.7 23.2 88 1.4 CALM 0 0 0 0 1012.5 - 0.0
28/01:00am 25.5 30.9 23.2 87 1.6 CALM 0 0 0 0 1012.6 - 0.0
28/12:30am 25.8 31.2 23.3 86 1.7 CALM 0 0 0 0 1012.9 - 0.0
28/12:00am 26.1 31.5 23.2 84 2.0 CALM 0 0 0 0 1012.9 1012.8 0.0
 
Date/Time
CST
Temp
°C
App
Temp
°C
Dew
Point
Rel
Hum
%
Delta-T
°C
Wind Press
QNH
hPa
Press
MSL
hPa
Rain
since 9 am
mm
Dir
 
Spd
km/h
Gust
km/h
Spd
kts
Gust
kts
27/11:30pm 26.2 30.4 23.1 83 2.1 E 6 7 3 4 1012.7 - 0.0
27/11:00pm 26.4 31.7 23.1 82 2.2 CALM 0 6 0 3 1012.9 - 0.0
27/10:30pm 26.5 31.1 23.2 82 2.2 NNE 4 7 2 4 1012.7 - 0.0
27/10:00pm 26.5 31.7 22.8 80 2.5 CALM 0 6 0 3 1012.7 - 0.0
27/09:30pm 27.1 32.3 22.9 78 2.9 CALM 0 0 0 0 1012.7 - 0.0
27/09:00pm 27.5 32.0 22.9 76 3.1 NNE 4 7 2 4 1012.5 1012.4 0.0
27/08:30pm 28.0 32.2 23.1 74 3.3 N 6 9 3 5 1012.5 - 0.0
27/08:00pm 28.0 31.8 22.7 73 3.6 NNE 7 13 4 7 1012.2 - 0.0
27/07:30pm 28.2 32.1 22.9 73 3.6 NNE 7 13 4 7 1012.0 - 0.0
27/07:00pm 28.3 32.0 22.3 70 4.1 N 6 9 3 5 1011.9 - 0.0
27/06:30pm 28.7 32.3 22.4 68 4.3 NNW 7 11 4 6 1011.7 - 0.0
27/06:00pm 29.1 32.2 22.1 66 4.7 NNW 9 13 5 7 1011.5 1011.4 0.0
27/05:30pm 29.7 32.7 21.9 63 5.3 NNW 9 15 5 8 1011.3 - 0.0
27/05:00pm 30.5 33.4 21.8 59 5.9 N 9 15 5 8 1011.0 - 0.0
27/04:30pm 31.0 34.0 22.0 58 6.1 N 9 17 5 9 1011.0 - 0.0
27/04:00pm 30.7 33.1 21.5 58 6.2 N 11 20 6 11 1010.6 - 0.0
27/03:30pm 31.4 33.6 21.8 56 6.5 N 13 19 7 10 1010.7 - 0.0
27/03:00pm 31.8 33.8 20.7 51 7.4 N 11 17 6 9 1011.0 1010.9 0.0
27/02:30pm 32.2 33.9 20.1 48 8.0 NNW 11 17 6 9 1011.6 - 0.0
27/02:00pm 32.3 34.5 21.2 52 7.5 N 11 19 6 10 1011.8 - 0.0
27/01:30pm 31.8 33.5 21.0 52 7.2 N 13 19 7 10 1012.3 - 0.0
27/01:00pm 31.5 33.8 21.4 55 6.8 N 11 15 6 8 1012.7 - 0.0
27/12:30pm 31.6 34.0 22.3 57 6.3 N 13 20 7 11 1013.1 - 0.0
27/12:00pm 33.0 36.8 22.7 54 7.1 ENE 7 13 4 7 1013.4 1013.3 0.0
27/11:30am 32.6 36.2 22.4 55 7.0 SSE 7 11 4 6 1013.7 - 0.0
27/11:00am 31.7 35.0 21.5 54 6.9 SE 6 11 3 6 1014.2 - 0.0
27/10:30am 32.1 36.0 22.5 57 6.6 NNW 6 11 3 6 1014.4 - 0.0
27/10:00am 30.5 34.5 22.7 63 5.3 NW 6 11 3 6 1014.6 - 0.0
27/09:30am 30.2 34.6 23.4 67 4.7 ESE 6 7 3 4 1014.7 - 0.0
27/09:00am 28.5 32.3 23.4 74 3.5 SSE 9 13 5 7 1014.7 1014.6 0.0
27/08:30am 27.6 31.8 23.4 78 2.9 S 7 13 4 7 1014.5 - 0.0
27/08:00am 26.0 30.5 22.9 83 2.1 SW 4 7 2 4 1014.2 - 0.0
27/07:30am 24.7 28.7 22.8 89 1.3 SSW 6 9 3 5 1013.9 - 0.0
27/07:00am 23.9 27.6 22.3 91 1.1 WSW 6 7 3 4 1013.9 - 0.0
27/06:30am 23.9 27.5 22.3 91 1.1 WSW 7 9 4 5 1013.6 - 0.0
27/06:00am 24.0 27.8 22.4 91 1.1 WSW 6 7 3 4 1013.2 1013.1 0.0
27/05:30am 24.2 27.9 22.6 91 1.1 SW 7 9 4 5 1012.9 - 0.0
27/05:00am 24.4 27.9 22.8 91 1.1 SW 9 11 5 6 1012.9 - 0.0
27/04:30am 24.6 28.7 23.0 91 1.1 SW 6 9 3 5 1012.7 - 0.0
27/04:00am 24.8 28.9 23.2 91 1.1 SW 7 9 4 5 1012.6 - 0.0
27/03:30am 25.0 29.2 23.2 90 1.2 W 6 7 3 4 1012.5 - 0.0
27/03:00am 25.1 29.6 23.0 88 1.4 WSW 4 7 2 4 1012.5 1012.4 0.0
27/02:30am 25.4 30.7 23.1 87 1.6 CALM 0 0 0 0 1012.7 - 0.0
27/02:00am 25.7 31.0 23.0 85 1.8 CALM 0 0 0 0 1012.8 - 0.0
27/01:30am 26.5 30.6 23.0 81 2.4 E 6 7 3 4 1012.8 - 0.0
27/01:00am 26.9 31.3 23.4 81 2.4 ENE 6 9 3 5 1012.9 - 0.0
27/12:30am 27.2 31.4 23.4 80 2.6 E 7 9 4 5 1012.9 - 0.0
27/12:00am 26.9 31.4 23.6 82 2.3 E 6 9 3 5 1012.9 1012.8 0.0
 
Date/Time
CST
Temp
°C
App
Temp
°C
Dew
Point
Rel
Hum
%
Delta-T
°C
Wind Press
QNH
hPa
Press
MSL
hPa
Rain
since 9 am
mm
Dir
 
Spd
km/h
Gust
km/h
Spd
kts
Gust
kts
26/11:30pm 25.7 29.9 23.2 86 1.7 ENE 6 7 3 4 1013.0 - 0.0
26/11:00pm 25.7 29.8 23.0 85 1.8 ENE 6 7 3 4 1012.9 - 0.0
26/10:30pm 25.9 30.4 23.0 84 2.0 NE 4 6 2 3 1012.9 - 0.0
26/10:00pm 26.1 30.2 23.0 83 2.1 NE 6 6 3 3 1013.0 - 0.0
26/09:30pm 26.5 30.6 23.0 81 2.4 NE 6 7 3 4 1013.0 - 0.0
26/09:00pm 27.1 31.4 23.3 80 2.6 NE 6 9 3 5 1012.9 1012.8 0.0
26/08:30pm 27.4 31.6 23.4 79 2.7 NNE 7 9 4 5 1012.7 - 0.0
26/08:00pm 27.5 31.6 23.3 78 2.9 NNE 7 11 4 6 1012.5 - 0.0
26/07:30pm 27.7 31.8 23.3 77 3.0 NNE 7 11 4 6 1012.1 - 0.0
26/07:00pm 27.8 31.6 22.7 74 3.5 N 7 11 4 6 1011.7 - 0.0
26/06:30pm 27.8 31.7 22.5 73 3.6 N 6 11 3 6 1011.4 - 0.0
26/06:00pm 28.7 32.3 22.4 68 4.3 N 7 9 4 5 1011.2 1011.1 0.0
26/05:30pm 29.5 32.8 22.5 66 4.8 N 9 15 5 8 1011.1 - 0.0
26/05:00pm 30.1 33.0 22.5 63 5.2 N 11 19 6 10 1011.0 - 0.0
26/04:30pm 32.3 35.2 21.8 54 7.1 ENE 9 13 5 7 1010.7 - 0.0
26/04:00pm 33.0 35.2 20.5 47 8.3 E 9 13 5 7 1010.6 - 0.0
26/03:30pm 32.8 34.4 20.0 47 8.5 E 11 17 6 9 1010.7 - 0.0
26/03:00pm 33.3 35.5 20.4 46 8.6 ENE 9 17 5 9 1010.9 1010.8 0.0
26/02:30pm 32.7 34.4 20.2 47 8.3 ESE 11 17 6 9 1011.1 - 0.0
26/02:00pm 32.9 34.3 20.4 47 8.3 ESE 13 17 7 9 1011.5 - 0.0
26/01:30pm 32.4 34.3 20.6 49 7.9 E 11 17 6 9 1012.0 - 0.0
26/01:00pm 32.2 34.7 21.7 54 7.1 ENE 11 17 6 9 1012.4 - 0.0
26/12:30pm 31.8 33.8 20.7 51 7.4 ENE 11 17 6 9 1013.0 - 0.0
26/12:00pm 31.2 32.8 19.9 51 7.4 E 11 17 6 9 1013.4 1013.3 0.0
26/11:30am 31.4 34.1 21.3 55 6.8 SE 9 13 5 7 1013.8 - 0.0
26/11:00am 31.3 34.6 21.8 57 6.4 SE 7 17 4 9 1014.3 - 0.0
26/10:30am 30.2 33.8 22.4 63 5.3 E 7 15 4 8 1014.5 - 0.0
26/10:00am 29.9 33.4 22.1 63 5.3 E 7 11 4 6 1014.6 - 0.0
26/09:30am 29.2 32.9 22.2 66 4.7 SSE 6 9 3 5 1014.6 - 0.0
26/09:00am 28.4 32.3 22.9 72 3.7 ESE 7 9 4 5 1014.6 1014.5 0.0
26/08:30am 27.3 31.3 22.7 76 3.1 ESE 6 7 3 4 1014.5 - 0.0
26/08:00am 25.8 29.5 22.3 81 2.4 SSE 6 9 3 5 1014.1 - 0.0
26/07:30am 24.3 28.9 21.8 86 1.7 CALM 0 0 0 0 1013.7 - 0.0
26/07:00am 23.2 27.3 21.5 90 1.1 S 2 7 1 4 1013.2 - 0.0
26/06:30am 23.4 28.0 21.7 90 1.1 CALM 0 0 0 0 1012.9 - 0.0
26/06:00am 23.6 26.8 21.7 89 1.3 S 7 11 4 6 1012.6 1012.5 0.0
26/05:30am 23.7 26.9 21.6 88 1.4 S 7 9 4 5 1012.5 - 0.0
26/05:00am 24.0 27.8 21.7 87 1.5 S 4 6 2 3 1012.5 - 0.0
26/04:30am 24.3 27.6 21.8 86 1.7 SSE 7 9 4 5 1012.4 - 0.0
26/04:00am 24.6 27.9 21.9 85 1.8 SSE 7 9 4 5 1012.3 - 0.0
26/03:30am 24.9 27.8 21.8 83 2.1 SE 9 11 5 6 1012.3 - 0.0
26/03:00am 25.2 28.3 22.1 83 2.1 SSE 9 11 5 6 1012.3 1012.2 0.0
26/02:30am 25.5 29.2 22.6 84 2.0 S 7 11 4 6 1012.5 - 0.0
26/02:00am 26.1 30.2 23.2 84 2.0 SSW 7 9 4 5 1012.7 - 0.0
26/01:30am 26.8 31.1 23.7 83 2.1 SSE 7 11 4 6 1012.7 - 0.0
26/01:00am 27.4 31.2 23.4 79 2.7 E 9 15 5 8 1012.7 - 0.0
26/12:30am 27.2 32.0 24.1 83 2.1 E 6 11 3 6 1013.0 - 0.0
26/12:00am 26.5 31.1 23.8 85 1.9 NE 6 9 3 5 1013.0 1012.9 0.0
 
Date/Time
CST
Temp
°C
App
Temp
°C
Dew
Point
Rel
Hum
%
Delta-T
°C
Wind Press
QNH
hPa
Press
MSL
hPa
Rain
since 9 am
mm
Dir
 
Spd
km/h
Gust
km/h
Spd
kts
Gust
kts
25/11:30pm 26.0 31.2 23.5 86 1.7 NNE 2 7 1 4 1013.0 - 0.0
25/11:00pm 26.0 31.4 23.3 85 1.8 CALM 0 0 0 0 1013.0 - 0.0
25/10:30pm 26.3 30.7 23.4 84 2.0 NE 6 7 3 4 1012.9 - 0.0
25/10:00pm 26.7 31.3 23.8 84 2.0 ENE 6 9 3 5 1012.8 - 0.0
25/09:30pm 26.3 30.8 23.6 85 1.8 NE 6 11 3 6 1012.6 - 0.0
25/09:00pm 26.2 31.4 22.9 82 2.2 CALM 0 2 0 1 1012.5 1012.4 0.0
25/08:30pm 26.6 31.9 23.1 81 2.4 CALM 0 0 0 0 1012.3 - 0.0
25/08:00pm 27.3 32.7 23.3 79 2.7 CALM 0 0 0 0 1011.8 - 0.0
25/07:30pm 27.5 31.6 23.3 78 2.9 N 7 11 4 6 1011.6 - 0.0
25/07:00pm 27.5 32.9 23.3 78 2.9 CALM 0 2 0 1 1011.2 - 0.0
25/06:30pm 28.2 32.4 23.1 74 3.5 N 6 7 3 4 1011.0 - 0.0
25/06:00pm 29.1 32.7 23.1 70 4.1 NE 9 15 5 8 1010.7 1010.6 0.0
25/05:30pm 30.1 32.9 22.3 63 5.3 ENE 11 15 6 8 1010.3 - 0.0
25/05:00pm 31.8 34.4 20.4 51 7.6 E 7 11 4 6 1009.9 - 0.0
25/04:30pm 32.2 34.4 20.5 50 7.8 E 9 11 5 6 1009.8 - 0.0
25/04:00pm 32.6 34.7 20.2 48 8.2 ESE 9 17 5 9 1009.6 - 0.0
25/03:30pm 33.0 35.2 20.5 47 8.3 E 9 17 5 9 1009.8 - 0.0
25/03:00pm 32.4 34.2 19.6 46 8.4 E 9 15 5 8 1009.9 1009.8 0.0
25/02:30pm 32.0 34.9 19.9 48 8.0 SSE 4 13 2 7 1010.0 - 0.0
25/02:00pm 31.8 34.5 21.3 53 7.1 SE 9 20 5 11 1010.4 - 0.0
25/01:30pm 32.0 35.1 22.1 55 6.7 SE 9 17 5 9 1010.8 - 0.0
25/01:00pm 30.5 32.6 21.0 57 6.3 ESE 11 20 6 11 1011.4 - 0.0
25/12:30pm 31.1 34.0 22.4 60 5.9 ESE 11 17 6 9 1012.0 - 0.0
25/12:00pm 30.5 33.6 22.1 61 5.7 E 9 17 5 9 1012.5 1012.4 0.0

Other Formats:

Comma delimited format used in spreadsheet applications
http://www.bom.gov.au/fwo/IDD60801/IDD60801.94140.axf

JavaScript Object Notation format (JSON) in row-major order
http://www.bom.gov.au/fwo/IDD60801/IDD60801.94140.json